Time;durP1;ratioP1;P1;durP2;ratioP2;P2;SDS_P1;SDS_P2;PMS_P1;PMS_P2;Temp;Humidity;BMP_temperature;BMP_pressure;BME280_temperature;BME280_humidity;BME280_pressure;Samples;Min_cycle;Max_cycle;Signal;HPM_P1;HPM_P2
2023/02/13 00:01:29;;;;;;;6.90;2.80;;;;;;;-6.46;100.00;101541.38;106356;1275;1002840;-68
2023/02/13 00:03:59;;;;;;;6.80;3.10;;;;;;;-6.47;100.00;101541.56;107052;1275;25306;-68
2023/02/13 00:06:28;;;;;;;8.20;3.50;;;;;;;-6.51;100.00;101542.34;107126;1274;25294;-69
2023/02/13 00:08:57;;;;;;;11.60;3.00;;;;;;;-6.54;100.00;101540.98;106409;1274;1003037;-68
2023/02/13 00:11:28;;;;;;;8.80;3.00;;;;;;;-6.56;100.00;101544.52;106896;1274;25686;-68
2023/02/13 00:13:57;;;;;;;12.20;3.30;;;;;;;-6.58;100.00;101546.33;106849;1275;25300;-68
2023/02/13 00:16:26;;;;;;;4.80;2.50;;;;;;;-6.62;100.00;101546.55;106355;1275;1003665;-69
2023/02/13 00:19:02;;;;;;;4.80;2.50;;;;;;;-6.63;100.00;101549.54;106323;1275;1002889;-68
2023/02/13 00:21:35;;;;;;;4.80;2.10;;;;;;;-6.65;100.00;101547.13;107076;1275;25536;-68
2023/02/13 00:24:05;;;;;;;3.40;2.60;;;;;;;-6.69;100.00;101548.58;106371;1274;1003586;-68
2023/02/13 00:26:33;;;;;;;5.80;2.20;;;;;;;-6.72;100.00;101553.02;106373;1275;1003036;-69
2023/02/13 00:29:03;;;;;;;2.50;2.30;;;;;;;-6.75;100.00;101555.34;106381;1274;1003022;-69
2023/02/13 00:31:32;;;;;;;3.10;1.90;;;;;;;-6.76;100.00;101552.92;106409;1274;1003723;-68
2023/02/13 00:34:00;;;;;;;3.60;2.10;;;;;;;-6.77;100.00;101556.09;106402;1275;1003669;-68
2023/02/13 00:36:29;;;;;;;3.10;2.10;;;;;;;-6.78;100.00;101556.96;107112;1275;25360;-67
2023/02/13 00:38:58;;;;;;;1.70;1.60;;;;;;;-6.78;100.00;101561.00;107100;1251;24295;-68
2023/02/13 00:41:26;;;;;;;5.50;2.50;;;;;;;-6.77;100.00;101561.17;106367;1274;1003608;-68
2023/02/13 00:43:55;;;;;;;9.80;4.90;;;;;;;-6.77;100.00;101560.46;107107;1275;23946;-68
2023/02/13 00:46:23;;;;;;;5.30;3.20;;;;;;;-6.77;100.00;101565.73;106322;1274;1003191;-68
2023/02/13 00:48:53;;;;;;;4.10;2.50;;;;;;;-6.80;100.00;101560.69;107076;1274;22533;-69
2023/02/13 00:51:22;;;;;;;2.50;2.30;;;;;;;-6.82;100.00;101560.89;107146;1274;25483;-68
2023/02/13 00:53:51;;;;;;;3.20;2.10;;;;;;;-6.82;100.00;101562.65;106418;1274;1002989;-69
2023/02/13 00:56:20;;;;;;;5.30;2.60;;;;;;;-6.82;100.00;101562.81;107107;1274;23898;-70
2023/02/13 00:58:48;;;;;;;7.40;3.00;;;;;;;-6.83;100.00;101560.73;107129;1275;25320;-69
2023/02/13 01:01:17;;;;;;;9.70;3.70;;;;;;;-6.85;100.00;101561.81;106328;1274;1003664;-68
2023/02/13 01:03:46;;;;;;;6.80;3.00;;;;;;;-6.85;100.00;101563.39;107109;1274;22517;-69
2023/02/13 01:06:14;;;;;;;8.70;3.00;;;;;;;-6.84;100.00;101561.09;107086;1274;23978;-67
2023/02/13 01:08:43;;;;;;;7.70;3.50;;;;;;;-6.84;100.00;101563.55;106960;1274;25354;-68
2023/02/13 01:11:12;;;;;;;7.20;3.40;;;;;;;-6.85;100.00;101561.46;106375;1275;1003492;-68
2023/02/13 01:13:41;;;;;;;5.50;3.40;;;;;;;-6.87;100.00;101563.24;106879;1275;25482;-68
2023/02/13 01:16:16;;;;;;;4.70;2.20;;;;;;;-6.89;100.00;101566.60;106315;1275;1003044;-68
2023/02/13 01:18:45;;;;;;;3.50;3.20;;;;;;;-6.91;100.00;101561.90;107120;1275;23674;-70
2023/02/13 01:21:16;;;;;;;3.30;2.30;;;;;;;-6.93;100.00;101565.42;106343;1275;1003812;-69
2023/02/13 01:23:47;;;;;;;5.50;3.30;;;;;;;-6.95;100.00;101565.29;107115;1275;25262;-70
2023/02/13 01:26:22;;;;;;;3.30;2.10;;;;;;;-6.99;100.00;101571.48;106949;1275;25423;-68
2023/02/13 01:28:53;;;;;;;7.50;2.10;;;;;;;-7.03;100.00;101569.26;106912;1275;25596;-67
2023/02/13 01:31:25;;;;;;;5.10;2.70;;;;;;;-7.07;100.00;101566.67;106329;1275;1002449;-68
2023/02/13 01:33:57;;;;;;;4.00;1.80;;;;;;;-7.07;100.00;101566.33;106206;1274;1003319;-68
2023/02/13 01:36:26;;;;;;;9.60;3.50;;;;;;;-7.08;100.00;101565.64;107126;1274;22530;-69
2023/02/13 01:38:56;;;;;;;3.30;3.00;;;;;;;-7.11;100.00;101567.96;107081;1275;25621;-68
2023/02/13 01:41:26;;;;;;;3.30;2.70;;;;;;;-7.14;100.00;101573.61;107020;1275;23277;-68
2023/02/13 01:43:58;;;;;;;8.30;2.80;;;;;;;-7.16;100.00;101574.36;107127;1275;25461;-68
2023/02/13 01:46:41;;;;;;;9.30;2.60;;;;;;;-7.17;100.00;101573.84;107127;1274;25297;-67
2023/02/13 01:49:18;;;;;;;6.50;2.70;;;;;;;-7.18;100.00;101576.13;106320;1275;1016019;-67
2023/02/13 01:51:49;;;;;;;8.40;3.30;;;;;;;-7.18;100.00;101579.64;107135;1275;25492;-69
2023/02/13 01:54:29;;;;;;;8.70;3.70;;;;;;;-7.19;100.00;101582.80;106383;1275;1002582;-68
2023/02/13 01:57:15;;;;;;;8.00;3.60;;;;;;;-7.19;100.00;101583.31;107117;1275;22597;-69
2023/02/13 01:59:47;;;;;;;8.60;3.80;;;;;;;-7.20;100.00;101588.07;107134;1275;26640;-68
2023/02/13 02:02:16;;;;;;;5.90;3.40;;;;;;;-7.23;100.00;101591.80;106932;1274;22602;-68
2023/02/13 02:04:45;;;;;;;8.60;3.20;;;;;;;-7.26;100.00;101594.11;106936;1274;26968;-69
2023/02/13 02:07:23;;;;;;;9.40;4.50;;;;;;;-7.26;100.00;101594.80;106917;1275;25518;-68
2023/02/13 02:09:57;;;;;;;5.50;3.60;;;;;;;-7.26;100.00;101599.54;106842;1274;26703;-68
2023/02/13 02:12:37;;;;;;;7.00;4.60;;;;;;;-7.26;100.00;101603.39;106915;1275;23854;-68
2023/02/13 02:15:07;;;;;;;5.00;3.60;;;;;;;-7.26;100.00;101605.14;106076;1275;1003689;-69
2023/02/13 02:17:38;;;;;;;3.00;2.60;;;;;;;-7.27;100.00;101611.48;106764;1274;22642;-69
2023/02/13 02:20:28;;;;;;;3.10;2.00;;;;;;;-7.30;100.00;101616.05;106119;1275;1003350;-70
2023/02/13 02:23:25;;;;;;;6.30;2.40;;;;;;;-7.31;100.00;101620.61;105968;1275;1002848;-70
2023/02/13 02:26:24;;;;;;;4.10;2.70;;;;;;;-7.33;100.00;101626.44;107108;1274;23077;-68
2023/02/13 02:29:22;;;;;;;2.10;2.00;;;;;;;-7.31;100.00;101629.55;106917;1275;25474;-69
2023/02/13 02:32:21;;;;;;;3.50;2.30;;;;;;;-7.30;100.00;101631.83;106408;1275;1003262;-69
2023/02/13 02:35:11;;;;;;;7.20;2.70;;;;;;;-7.30;100.00;101631.66;106378;1275;1002890;-69
2023/02/13 02:37:56;;;;;;;4.00;2.30;;;;;;;-7.31;100.00;101631.67;106408;1275;1003063;-68
2023/02/13 02:41:03;;;;;;;8.90;3.50;;;;;;;-7.31;100.00;101634.11;107111;1275;25685;-68
2023/02/13 02:43:57;;;;;;;3.70;2.20;;;;;;;-7.32;100.00;101636.06;107088;1275;25539;-70
2023/02/13 02:46:32;;;;;;;10.60;5.50;;;;;;;-7.31;100.00;101636.05;106344;1274;1003057;-68
2023/02/13 02:51:53;;;;;;;7.60;4.90;;;;;;;-7.32;100.00;101633.78;106384;1275;1002863;-68
2023/02/13 02:57:17;;;;;;;5.60;4.00;;;;;;;-7.37;100.00;101647.15;106898;1275;26516;-67
2023/02/13 03:14:02;;;;;;;8.20;3.00;;;;;;;-7.62;100.00;101641.13;106344;1274;1003068;-69
2023/02/13 03:22:24;;;;;;;3.40;2.10;;;;;;;-7.70;100.00;101636.83;106130;1275;1003693;-69
2023/02/13 03:25:03;;;;;;;3.70;2.30;;;;;;;-7.71;100.00;101638.05;106358;1274;1003614;-68
2023/02/13 03:31:07;;;;;;;3.60;2.00;;;;;;;-7.72;100.00;101642.98;106091;1274;1003291;-69
2023/02/13 03:33:42;;;;;;;4.90;2.80;;;;;;;-7.73;100.00;101654.20;107150;1274;22662;-68
2023/02/13 03:39:48;;;;;;;1.70;1.60;;;;;;;-7.76;100.00;101659.66;106356;1274;1002828;-68
2023/02/13 03:42:23;;;;;;;3.80;2.30;;;;;;;-7.78;100.00;101662.83;106959;1275;25614;-67
2023/02/13 03:47:51;;;;;;;6.70;2.20;;;;;;;-7.80;100.00;101666.35;106341;1274;1002454;-69
2023/02/13 03:50:20;;;;;;;5.20;2.40;;;;;;;-7.79;100.00;101667.75;107161;1274;22661;-68
2023/02/13 03:53:02;;;;;;;3.40;2.00;;;;;;;-7.79;100.00;101675.98;106151;1274;1003450;-68
2023/02/13 04:01:21;;;;;;;3.20;2.10;;;;;;;-7.84;100.00;101674.96;107089;1251;25594;-69
2023/02/13 04:03:50;;;;;;;5.40;2.60;;;;;;;-7.84;100.00;101676.89;106875;1274;25502;-68
2023/02/13 04:06:20;;;;;;;3.30;2.00;;;;;;;-7.83;100.00;101677.77;106378;1274;1003170;-68
2023/02/13 04:08:49;;;;;;;5.10;2.70;;;;;;;-7.81;100.00;101678.09;106898;1275;25499;-69
2023/02/13 04:11:29;;;;;;;20.90;8.00;;;;;;;-7.80;100.00;101678.42;106123;1274;1002925;-69
2023/02/13 04:14:09;;;;;;;15.30;4.80;;;;;;;-7.80;100.00;101687.19;107119;1274;22546;-68
2023/02/13 04:16:42;;;;;;;19.80;5.40;;;;;;;-7.79;100.00;101691.55;106920;1275;25344;-67
2023/02/13 04:19:11;;;;;;;27.50;7.70;;;;;;;-7.78;100.00;101700.13;106158;1274;1003547;-68
2023/02/13 04:21:40;;;;;;;32.60;8.30;;;;;;;-7.79;100.00;101701.19;106883;1275;26784;-68
2023/02/13 04:24:09;;;;;;;22.40;7.50;;;;;;;-7.78;100.00;101705.54;106356;1274;1003075;-69
2023/02/13 04:26:39;;;;;;;21.50;7.00;;;;;;;-7.78;100.00;101708.35;106370;1275;1003713;-68
2023/02/13 04:29:08;;;;;;;16.90;5.40;;;;;;;-7.78;100.00;101704.52;106372;1274;1003735;-68
2023/02/13 04:31:39;;;;;;;14.90;4.80;;;;;;;-7.79;100.00;101706.79;107003;1274;25538;-68
2023/02/13 04:34:08;;;;;;;9.90;4.40;;;;;;;-7.78;100.00;101712.04;106924;1275;22532;-69
2023/02/13 04:36:36;;;;;;;11.90;4.50;;;;;;;-7.78;100.00;101711.67;106309;1251;1003163;-68
2023/02/13 04:39:05;;;;;;;16.40;6.40;;;;;;;-7.77;100.00;101705.54;107042;1275;22527;-69
2023/02/13 04:41:33;;;;;;;17.50;5.60;;;;;;;-7.76;100.00;101702.20;106144;1274;1003264;-69
2023/02/13 04:44:02;;;;;;;12.50;4.60;;;;;;;-7.74;100.00;101696.41;107125;1274;25503;-69
2023/02/13 04:46:31;;;;;;;11.50;4.70;;;;;;;-7.72;100.00;101691.48;106410;1274;1003820;-68
2023/02/13 04:49:00;;;;;;;7.80;3.90;;;;;;;-7.71;100.00;101685.16;107134;1275;25709;-68
2023/02/13 04:51:29;;;;;;;7.60;3.30;;;;;;;-7.69;100.00;101682.35;106393;1274;1002927;-69
2023/02/13 04:53:57;;;;;;;7.50;3.50;;;;;;;-7.67;100.00;101683.20;107128;1275;25449;-70
2023/02/13 04:56:25;;;;;;;9.20;3.00;;;;;;;-7.65;100.00;101682.30;106300;1274;1003675;-70
2023/02/13 04:58:55;;;;;;;4.20;2.90;;;;;;;-7.62;100.00;101685.77;107158;1274;26726;-69
2023/02/13 05:01:23;;;;;;;9.50;3.10;;;;;;;-7.59;100.00;101684.54;107159;1275;25377;-67
2023/02/13 05:03:52;;;;;;;11.60;3.30;;;;;;;-7.57;100.00;101683.12;107155;1274;25569;-70
2023/02/13 05:06:21;;;;;;;6.60;2.60;;;;;;;-7.55;100.00;101681.52;106363;1274;1003504;-69
2023/02/13 05:08:49;;;;;;;26.80;9.10;;;;;;;-7.54;100.00;101694.11;107138;1275;24257;-68
2023/02/13 05:11:18;;;;;;;43.50;21.40;;;;;;;-7.53;100.00;101691.31;106388;1275;1003021;-68
2023/02/13 05:13:50;;;;;;;27.00;12.20;;;;;;;-7.50;100.00;101693.90;106376;1274;1003243;-68
2023/02/13 05:16:18;;;;;;;28.00;13.40;;;;;;;-7.47;100.00;101690.73;107102;1275;26950;-68
2023/02/13 05:18:47;;;;;;;29.20;13.60;;;;;;;-7.44;100.00;101689.98;107094;1274;25554;-68
2023/02/13 05:24:04;;;;;;;14.40;7.20;;;;;;;-7.35;100.00;101700.41;106375;1274;1003447;-68
2023/02/13 05:26:33;;;;;;;11.40;6.20;;;;;;;-7.31;100.00;101706.66;106388;1274;1002924;-69
2023/02/13 05:29:17;;;;;;;10.80;6.60;;;;;;;-7.28;100.00;101706.65;106388;1274;1002953;-70
2023/02/13 05:31:47;;;;;;;10.30;5.40;;;;;;;-7.24;100.00;101706.95;106148;1275;1003072;-69
2023/02/13 05:34:16;;;;;;;12.50;6.30;;;;;;;-7.20;100.00;101713.38;106196;1274;1002422;-69
2023/02/13 05:36:44;;;;;;;7.40;3.70;;;;;;;-7.16;100.00;101711.58;107173;1274;22679;-69
2023/02/13 05:39:14;;;;;;;8.70;3.90;;;;;;;-7.12;100.00;101710.84;106174;1267;1003746;-70
2023/02/13 05:41:43;;;;;;;8.70;4.30;;;;;;;-7.07;100.00;101708.66;107095;1274;25612;-68
2023/02/13 05:44:12;;;;;;;18.20;8.60;;;;;;;-7.02;100.00;101710.72;106432;1268;1002897;-69
2023/02/13 05:46:41;;;;;;;19.20;8.30;;;;;;;-6.98;100.00;101717.33;106495;1274;1002431;-68
2023/02/13 05:49:11;;;;;;;20.80;11.00;;;;;;;-6.93;100.00;101716.22;107174;1274;25481;-70
2023/02/13 05:51:41;;;;;;;30.70;14.90;;;;;;;-6.88;100.00;101714.41;107134;1274;26084;-69
2023/02/13 05:54:10;;;;;;;18.80;8.30;;;;;;;-6.82;100.00;101715.57;106432;1274;1003748;-70
2023/02/13 05:56:38;;;;;;;17.50;7.40;;;;;;;-6.77;100.00;101715.15;107052;1274;25757;-69
2023/02/13 05:59:07;;;;;;;16.60;6.00;;;;;;;-6.72;100.00;101718.06;106368;1275;1003789;-70
2023/02/13 06:01:37;;;;;;;11.90;4.20;;;;;;;-6.67;100.00;101723.09;107017;1275;25406;-69
2023/02/13 06:04:05;;;;;;;10.50;4.80;;;;;;;-6.61;100.00;101719.68;106298;1274;1003142;-68
2023/02/13 06:06:34;;;;;;;10.30;4.10;;;;;;;-6.55;100.00;101722.05;107045;1274;25580;-69
2023/02/13 06:09:03;;;;;;;7.40;3.30;;;;;;;-6.48;100.00;101725.82;106119;1274;1002878;-69
2023/02/13 06:11:31;;;;;;;11.00;4.20;;;;;;;-6.42;100.00;101731.89;106213;1262;1005738;-69
2023/02/13 06:14:00;;;;;;;12.90;5.10;;;;;;;-6.36;100.00;101731.27;107078;1274;25585;-68
2023/02/13 06:16:30;;;;;;;22.70;8.90;;;;;;;-6.26;100.00;101726.38;107037;1275;26495;-68
2023/02/13 06:18:59;;;;;;;18.90;7.70;;;;;;;-6.16;100.00;101724.30;106891;1274;25734;-70
2023/02/13 06:21:28;;;;;;;10.60;4.90;;;;;;;-6.08;100.00;101719.98;106412;1267;1003481;-73
2023/02/13 06:23:57;;;;;;;8.30;3.50;;;;;;;-6.01;100.00;101721.45;107131;1274;25448;-68
2023/02/13 06:26:26;;;;;;;8.00;4.30;;;;;;;-5.95;100.00;101720.44;106950;1275;25565;-71
2023/02/13 06:28:55;;;;;;;12.10;4.70;;;;;;;-5.83;100.00;101721.65;106305;1272;1003265;-73
2023/02/13 06:31:28;;;;;;;6.70;3.60;;;;;;;-5.71;100.00;101708.78;106334;1275;1003005;-71
2023/02/13 06:33:59;;;;;;;7.60;3.80;;;;;;;-5.56;100.00;101708.54;106881;1275;22587;-71
2023/02/13 06:36:29;;;;;;;12.50;4.40;;;;;;;-5.44;100.00;101709.20;106282;1275;1003523;-69
2023/02/13 06:38:58;;;;;;;10.00;4.40;;;;;;;-5.33;100.00;101701.08;106210;1275;1003035;-69
2023/02/13 06:41:27;;;;;;;12.80;5.10;;;;;;;-5.23;100.00;101700.19;106981;1274;26522;-69
2023/02/13 06:43:59;;;;;;;9.90;4.90;;;;;;;-5.15;100.00;101698.98;106695;1275;1003271;-76
2023/02/13 06:46:28;;;;;;;16.60;5.40;;;;;;;-5.09;100.00;101699.23;107270;1275;1003741;-75
2023/02/13 06:48:56;;;;;;;11.80;5.10;;;;;;;-5.05;100.00;101688.92;107248;1275;1003039;-79
2023/02/13 06:51:25;;;;;;;13.20;6.80;;;;;;;-4.98;100.00;101683.16;108041;1275;22543;-77
2023/02/13 06:53:53;;;;;;;13.90;6.70;;;;;;;-4.90;100.00;101677.38;107268;1275;1002955;-78
2023/02/13 06:56:22;;;;;;;17.80;9.10;;;;;;;-4.82;100.00;101674.20;107370;1275;1003612;-75
2023/02/13 06:58:51;;;;;;;13.70;6.10;;;;;;;-4.72;100.00;101665.04;107181;1267;1003269;-78
2023/02/13 07:01:21;;;;;;;15.40;7.60;;;;;;;-4.63;100.00;101662.54;108290;1267;25568;-76
2023/02/13 07:03:49;;;;;;;14.20;6.80;;;;;;;-4.55;100.00;101658.48;108043;1266;22516;-78
2023/02/13 07:06:18;;;;;;;12.40;5.90;;;;;;;-4.52;100.00;101653.13;107381;1266;1002513;-79
2023/02/13 07:08:50;;;;;;;12.60;5.70;;;;;;;-4.49;100.00;101647.95;108022;1267;23893;-76
2023/02/13 07:11:21;;;;;;;17.80;7.10;;;;;;;-4.45;100.00;101649.29;107005;1269;1002975;-75
2023/02/13 07:13:51;;;;;;;11.10;4.80;;;;;;;-4.43;100.00;101644.66;106909;1274;1003654;-76
2023/02/13 07:16:25;;;;;;;13.10;5.80;;;;;;;-4.40;100.00;101637.71;107038;1274;1003210;-74
2023/02/13 07:18:54;;;;;;;11.30;5.30;;;;;;;-4.30;100.00;101635.38;107718;1274;22481;-75
2023/02/13 07:21:23;;;;;;;23.30;9.70;;;;;;;-4.16;100.00;101631.15;107840;1272;25434;-77
2023/02/13 07:23:51;;;;;;;6.50;3.60;;;;;;;-4.00;100.00;101636.58;107115;1267;1003173;-76
2023/02/13 07:26:20;;;;;;;14.60;5.40;;;;;;;-3.87;100.00;101632.91;107772;1274;23892;-77
2023/02/13 07:28:50;;;;;;;8.60;3.50;;;;;;;-3.79;100.00;101630.38;106928;1275;1002839;-78
2023/02/13 07:31:34;;;;;;;7.40;3.60;;;;;;;-3.66;100.00;101633.23;107779;1275;22780;-77
2023/02/13 07:34:04;;;;;;;7.00;3.90;;;;;;;-3.59;100.00;101633.03;107021;1275;1003305;-77
2023/02/13 07:36:33;;;;;;;12.20;6.00;;;;;;;-3.53;100.00;101630.75;107735;1274;25908;-77
2023/02/13 07:39:02;;;;;;;16.50;7.90;;;;;;;-3.42;100.00;101622.34;107615;1274;23906;-77
2023/02/13 07:41:31;;;;;;;13.30;6.10;;;;;;;-3.21;100.00;101622.98;107985;1268;22519;-76
2023/02/13 07:43:59;;;;;;;7.70;3.90;;;;;;;-2.98;100.00;101619.14;106995;1265;1002497;-77
2023/02/13 07:46:28;;;;;;;6.80;3.70;;;;;;;-2.85;100.00;101617.17;107934;1274;26023;-77
2023/02/13 07:48:58;;;;;;;5.50;3.10;;;;;;;-2.75;100.00;101622.50;107787;1274;25523;-77
2023/02/13 07:51:27;;;;;;;8.10;3.40;;;;;;;-2.62;100.00;101624.61;107775;1274;22548;-77
2023/02/13 07:53:56;;;;;;;17.50;7.40;;;;;;;-2.51;100.00;101621.95;107679;1275;24229;-74
2023/02/13 07:56:24;;;;;;;10.00;5.20;;;;;;;-2.40;100.00;101614.55;108553;1275;1002560;-73
2023/02/13 07:58:54;;;;;;;10.60;6.00;;;;;;;-2.36;100.00;101614.40;107831;1274;1003299;-76
2023/02/13 08:01:22;;;;;;;9.80;4.20;;;;;;;-2.35;100.00;101606.94;107743;1274;22638;-69
2023/02/13 08:03:51;;;;;;;9.70;4.00;;;;;;;-2.37;100.00;101603.65;106489;1274;1003413;-69
2023/02/13 08:06:20;;;;;;;6.60;3.20;;;;;;;-2.47;100.00;101595.33;106379;1274;1016473;-68
2023/02/13 08:11:52;;;;;;;5.50;3.20;;;;;;;-2.59;100.00;101585.64;107051;1275;24926;-70
2023/02/13 08:11:54;;;;;;;7.90;3.50;;;;;;;-2.68;100.00;101572.52;106647;1275;1003292;-74
2023/02/13 08:14:42;;;;;;;31.40;14.30;;;;;;;-2.66;100.00;101566.95;106234;1275;1003350;-72
2023/02/13 08:17:11;;;;;;;21.80;9.70;;;;;;;-2.60;100.00;101564.84;107143;1267;23896;-70
2023/02/13 08:19:40;;;;;;;16.90;6.20;;;;;;;-2.57;100.00;101561.92;107081;1266;25265;-70
2023/02/13 08:22:12;;;;;;;11.90;5.40;;;;;;;-2.52;100.00;101559.98;106338;1274;1003086;-69
2023/02/13 08:24:44;;;;;;;16.30;5.80;;;;;;;-2.47;100.00;101547.13;106340;1272;1003129;-75
2023/02/13 08:27:14;;;;;;;22.20;9.20;;;;;;;-2.45;100.00;101540.52;107142;1267;1003000;-72
2023/02/13 08:29:42;;;;;;;22.70;9.30;;;;;;;-2.40;100.00;101539.28;106653;1272;1016039;-74
2023/02/13 08:32:11;;;;;;;21.10;9.20;;;;;;;-2.23;100.00;101538.17;107073;1274;1002928;-74
2023/02/13 08:34:41;;;;;;;30.60;15.20;;;;;;;-1.95;100.00;101540.40;107056;1274;1003991;-74
2023/02/13 08:37:10;;;;;;;25.80;11.40;;;;;;;-1.68;100.00;101538.91;106740;1274;1002853;-69
2023/02/13 08:39:39;;;;;;;31.20;16.90;;;;;;;-1.45;100.00;101537.17;106454;1266;1003068;-71
2023/02/13 08:42:08;;;;;;;61.40;26.60;;;;;;;-1.32;100.00;101528.21;106356;1267;1003159;-70
2023/02/13 08:44:41;;;;;;;30.20;16.80;;;;;;;-1.32;100.00;101517.94;106305;1275;1003356;-68
2023/02/13 08:47:10;;;;;;;27.10;12.40;;;;;;;-1.24;100.00;101515.52;107027;1274;22723;-68
2023/02/13 08:49:38;;;;;;;15.70;7.30;;;;;;;-1.16;100.00;101515.55;107115;1275;25310;-68
2023/02/13 08:52:08;;;;;;;10.40;5.40;;;;;;;-1.24;100.00;101510.55;106977;1271;26515;-68
2023/02/13 08:54:37;;;;;;;20.10;7.70;;;;;;;-1.38;100.00;101499.77;106211;1267;1003204;-70
2023/02/13 08:57:07;;;;;;;10.50;5.10;;;;;;;-1.61;100.00;101495.69;106321;1275;1002911;-69
2023/02/13 08:59:36;;;;;;;13.60;4.80;;;;;;;-1.71;100.00;101492.16;106205;1270;1002599;-68
2023/02/13 09:02:04;;;;;;;12.50;4.90;;;;;;;-1.65;100.00;101491.95;107089;1274;24259;-68
2023/02/13 09:04:33;;;;;;;10.10;4.70;;;;;;;-1.52;100.00;101488.79;107177;1269;25303;-67
2023/02/13 09:07:01;;;;;;;10.30;4.60;;;;;;;-1.44;100.00;101491.86;106298;1274;1002896;-69
2023/02/13 09:09:32;;;;;;;10.20;4.70;;;;;;;-1.43;100.00;101486.33;106916;1274;25361;-67
2023/02/13 09:12:01;;;;;;;7.60;4.60;;;;;;;-1.34;100.00;101478.73;106834;1273;24390;-66
2023/02/13 09:14:29;;;;;;;9.10;4.70;;;;;;;-1.28;100.00;101472.65;106382;1270;1003580;-67
2023/02/13 09:16:58;;;;;;;8.20;4.20;;;;;;;-1.11;100.00;101468.63;106423;1274;1003055;-65
2023/02/13 09:19:27;;;;;;;9.40;5.00;;;;;;;-0.90;100.00;101469.05;106898;1273;24186;-68
2023/02/13 09:21:56;;;;;;;10.80;4.70;;;;;;;-0.74;100.00;101464.48;106404;1273;1003429;-67
2023/02/13 09:24:25;;;;;;;13.70;6.30;;;;;;;-0.56;100.00;101455.95;106301;1274;1003077;-66
2023/02/13 09:26:55;;;;;;;14.10;6.80;;;;;;;-0.43;100.00;101450.27;106294;1275;1003036;-68
2023/02/13 09:29:24;;;;;;;14.20;6.30;;;;;;;-0.32;100.00;101446.77;106165;1272;1003032;-69
2023/02/13 09:31:54;;;;;;;8.00;4.40;;;;;;;-0.26;100.00;101438.36;107350;1274;23855;-69
2023/02/13 09:34:23;;;;;;;10.90;4.90;;;;;;;-0.30;100.00;101428.44;107263;1274;23424;-71
2023/02/13 09:36:52;;;;;;;10.70;4.80;;;;;;;-0.24;100.00;101420.00;107038;1275;25606;-70
2023/02/13 09:39:21;;;;;;;9.30;5.20;;;;;;;-0.16;100.00;101413.83;106345;1275;1005219;-72
2023/02/13 09:41:51;;;;;;;14.50;6.90;;;;;;;-0.09;100.00;101407.98;107032;1274;24395;-72
2023/02/13 09:44:34;;;;;;;14.10;5.50;;;;;;;-0.14;100.00;101396.39;106294;1274;1003307;-70
2023/02/13 09:47:29;;;;;;;21.30;9.60;;;;;;;-0.33;100.00;101385.86;107028;1275;25433;-69
2023/02/13 09:50:02;;;;;;;23.40;10.70;;;;;;;-0.53;100.00;101384.25;106237;1275;1003197;-68
2023/02/13 09:52:32;;;;;;;13.70;6.50;;;;;;;-0.65;100.00;101376.63;106262;1271;1003142;-69
2023/02/13 09:55:01;;;;;;;11.60;5.70;;;;;;;-0.75;100.00;101375.98;106289;1275;1003154;-70
2023/02/13 09:57:34;;;;;;;13.30;5.60;;;;;;;-0.84;100.00;101379.19;106280;1275;1003153;-70
2023/02/13 10:00:11;;;;;;;8.00;4.60;;;;;;;-0.72;100.00;101392.31;107148;1274;25323;-69
2023/02/13 10:02:50;;;;;;;8.70;4.10;;;;;;;-0.72;100.00;101383.45;106389;1274;1003417;-72
2023/02/13 10:05:28;;;;;;;12.80;6.00;;;;;;;-0.69;100.00;101383.37;106406;1274;1002691;-72
2023/02/13 10:08:07;;;;;;;10.10;4.30;;;;;;;-0.62;100.00;101376.83;107141;1274;23864;-71
2023/02/13 10:10:55;;;;;;;9.50;4.40;;;;;;;-0.59;100.00;101372.29;106436;1267;1003649;-69
2023/02/13 10:13:46;;;;;;;14.40;7.60;;;;;;;-0.54;100.00;101376.34;107093;1269;23237;-69
2023/02/13 10:16:20;;;;;;;10.20;4.80;;;;;;;-0.44;100.00;101371.81;107168;1266;22521;-68
2023/02/13 10:19:24;;;;;;;8.80;4.20;;;;;;;-0.36;100.00;101367.01;107012;1269;26527;-68
2023/02/13 10:21:58;;;;;;;7.80;4.10;;;;;;;-0.20;100.00;101367.02;106730;1267;25459;-69
2023/02/13 10:24:26;;;;;;;13.70;5.10;;;;;;;-0.11;100.00;101356.14;107225;1267;22520;-69
2023/02/13 10:26:57;;;;;;;14.30;5.70;;;;;;;0.03;100.00;101350.54;106613;1269;1003068;-74
2023/02/13 10:32:34;;;;;;;11.90;5.30;;;;;;;0.18;100.00;101348.98;106807;1275;1005411;-74
2023/02/13 10:35:04;;;;;;;14.30;5.70;;;;;;;0.06;100.00;101342.08;107917;1272;22539;-75
2023/02/13 10:37:32;;;;;;;20.30;8.80;;;;;;;0.01;100.00;101337.54;107130;1272;22520;-69
2023/02/13 10:40:01;;;;;;;14.30;6.30;;;;;;;-0.09;100.00;101347.75;107543;1272;25320;-75
2023/02/13 10:42:33;;;;;;;8.70;4.10;;;;;;;-0.16;100.00;101342.92;107175;1267;1003318;-70
2023/02/13 10:45:08;;;;;;;11.00;4.50;;;;;;;-0.20;100.00;101339.91;107176;1266;22541;-70
2023/02/13 10:47:46;;;;;;;11.40;5.10;;;;;;;-0.19;100.00;101335.44;107261;1272;22640;-69
2023/02/13 10:50:39;;;;;;;9.30;4.40;;;;;;;-0.20;100.00;101330.34;107076;1270;25290;-68
2023/02/13 10:53:23;;;;;;;10.20;5.00;;;;;;;-0.29;100.00;101330.19;108024;1272;24231;-77
2023/02/13 10:55:57;;;;;;;15.60;8.30;;;;;;;-0.43;100.00;101325.72;107530;1274;1003083;-77
2023/02/13 10:58:52;;;;;;;14.20;7.60;;;;;;;-0.57;100.00;101328.98;108040;1266;24496;-77
2023/02/13 11:01:31;;;;;;;18.40;8.00;;;;;;;-0.57;100.00;101325.27;107342;1271;1002511;-77
2023/02/13 11:04:06;;;;;;;24.10;10.30;;;;;;;-0.45;100.00;101328.09;107901;1274;22657;-75
2023/02/13 11:06:36;;;;;;;20.90;8.10;;;;;;;-0.40;100.00;101329.63;108023;1275;22556;-74
2023/02/13 11:09:08;;;;;;;20.90;8.10;;;;;;;-0.37;100.00;101321.89;107471;1275;25505;-70
2023/02/13 11:11:38;;;;;;;14.70;6.10;;;;;;;-0.40;100.00;101321.85;107129;1275;26502;-67
2023/02/13 11:14:16;;;;;;;10.60;5.10;;;;;;;-0.49;100.00;101318.73;107006;1275;22523;-70
2023/02/13 11:17:00;;;;;;;8.30;4.80;;;;;;;-0.52;100.00;101319.20;107095;1275;23763;-69
2023/02/13 11:19:33;;;;;;;9.10;4.30;;;;;;;-0.67;100.00;101313.13;107139;1271;26633;-67
2023/02/13 11:22:08;;;;;;;8.50;3.90;;;;;;;-0.76;100.00;101313.15;107196;1275;24232;-71
2023/02/13 11:25:04;;;;;;;11.10;5.10;;;;;;;-0.79;100.00;101312.42;106196;1267;1002800;-69
2023/02/13 11:27:34;;;;;;;10.60;5.10;;;;;;;-0.73;100.00;101307.70;106232;1275;1003643;-69
2023/02/13 11:30:27;;;;;;;25.10;10.40;;;;;;;-0.62;100.00;101298.74;106464;1267;1003287;-71
2023/02/13 11:33:25;;;;;;;22.90;9.90;;;;;;;-0.54;100.00;101295.18;107259;1267;26700;-69
2023/02/13 11:36:20;;;;;;;16.40;7.30;;;;;;;-0.52;100.00;101290.31;107239;1275;24228;-70
2023/02/13 11:39:06;;;;;;;13.30;5.20;;;;;;;-0.50;100.00;101285.64;106453;1274;1003068;-71
2023/02/13 11:41:39;;;;;;;21.00;7.90;;;;;;;-0.45;100.00;101283.64;107109;1268;26612;-70
2023/02/13 11:44:25;;;;;;;20.30;7.40;;;;;;;-0.46;100.00;101276.59;106907;1268;26506;-72
2023/02/13 11:46:57;;;;;;;8.50;4.60;;;;;;;-0.43;100.00;101273.58;106510;1274;1003237;-70
2023/02/13 11:49:31;;;;;;;8.80;4.40;;;;;;;-0.32;100.00;101273.45;107305;1274;22544;-70
2023/02/13 11:52:01;;;;;;;24.50;10.70;;;;;;;-0.28;100.00;101268.33;107153;1275;26502;-69
2023/02/13 11:54:42;;;;;;;15.00;5.80;;;;;;;-0.32;100.00;101262.66;107229;1274;22616;-68
2023/02/13 11:57:19;;;;;;;14.80;6.80;;;;;;;-0.29;100.00;101257.73;107018;1269;25300;-69
2023/02/13 11:59:51;;;;;;;8.10;4.30;;;;;;;-0.38;100.00;101252.66;106926;1269;24322;-70
2023/02/13 12:02:28;;;;;;;10.00;4.60;;;;;;;-0.38;100.00;101245.40;106338;1275;1003793;-69
2023/02/13 12:05:17;;;;;;;9.30;4.40;;;;;;;-0.32;100.00;101246.89;106885;1275;25965;-70
2023/02/13 12:07:47;;;;;;;10.90;5.20;;;;;;;-0.29;100.00;101243.71;106913;1271;1002944;-75
2023/02/13 12:10:24;;;;;;;16.10;6.30;;;;;;;-0.29;100.00;101238.08;106919;1272;1002939;-73